Time;durP1;ratioP1;P1;durP2;ratioP2;P2;SDS_P1;SDS_P2;PMS_P1;PMS_P2;Temp;Humidity;BMP_temperature;BMP_pressure;BME280_temperature;BME280_humidity;BME280_pressure;Samples;Min_cycle;Max_cycle;Signal;HPM_P1;HPM_P2
2022/04/19 00:01:10;;;;;;;6.25;3.50;;;;;;;;;;4964371;28;20080;-83
2022/04/19 00:03:37;;;;;;;5.97;3.30;;;;;;;;;;4968724;28;20055;-83
2022/04/19 00:06:04;;;;;;;8.27;3.30;;;;;;;;;;4989246;28;20537;-84
2022/04/19 00:08:30;;;;;;;5.93;3.50;;;;;;;;;;4969189;28;20869;-84
2022/04/19 00:10:57;;;;;;;7.10;3.55;;;;;;;;;;4984421;28;20162;-84
2022/04/19 00:13:23;;;;;;;8.00;3.60;;;;;;;;;;4959939;28;20062;-84
2022/04/19 00:15:50;;;;;;;6.00;3.17;;;;;;;;;;4963781;28;20502;-84
2022/04/19 00:18:16;;;;;;;6.75;3.25;;;;;;;;;;4979850;28;20109;-84
2022/04/19 00:20:43;;;;;;;6.13;3.50;;;;;;;;;;4984671;28;20075;-84
2022/04/19 00:23:13;;;;;;;5.90;3.50;;;;;;;;;;4968097;28;20071;-84
2022/04/19 00:25:40;;;;;;;6.22;3.75;;;;;;;;;;4963739;28;20382;-84
2022/04/19 00:28:07;;;;;;;6.65;3.63;;;;;;;;;;4983215;28;20145;-84
2022/04/19 00:30:33;;;;;;;6.45;3.67;;;;;;;;;;4970832;28;20137;-84
2022/04/19 00:33:00;;;;;;;7.20;3.65;;;;;;;;;;4988834;28;20069;-84
2022/04/19 00:35:28;;;;;;;7.13;4.03;;;;;;;;;;4973166;28;20121;-84
2022/04/19 00:37:54;;;;;;;7.13;4.32;;;;;;;;;;4973312;28;20604;-84
2022/04/19 00:40:21;;;;;;;7.03;3.97;;;;;;;;;;4989682;28;20133;-84
2022/04/19 00:42:47;;;;;;;8.10;4.10;;;;;;;;;;4975611;28;20110;-84
2022/04/19 00:45:13;;;;;;;7.65;4.40;;;;;;;;;;4989253;28;20589;-84
2022/04/19 00:47:40;;;;;;;7.55;3.90;;;;;;;;;;4965374;28;20069;-84
2022/04/19 00:50:07;;;;;;;7.25;4.13;;;;;;;;;;4967544;28;20157;-84
2022/04/19 00:52:34;;;;;;;7.15;4.53;;;;;;;;;;4970176;28;20090;-84
2022/04/19 00:55:02;;;;;;;8.20;4.10;;;;;;;;;;4969432;28;20051;-84
2022/04/19 00:57:28;;;;;;;7.00;4.50;;;;;;;;;;4973827;28;20142;-84
2022/04/19 00:59:55;;;;;;;7.60;4.50;;;;;;;;;;4981678;28;20478;-84
2022/04/19 01:02:22;;;;;;;9.02;4.05;;;;;;;;;;4974257;28;20142;-84
2022/04/19 01:04:55;;;;;;;8.77;4.47;;;;;;;;;;4971991;28;20606;-84
2022/04/19 01:07:22;;;;;;;7.32;4.00;;;;;;;;;;4975689;28;20111;-84
2022/04/19 01:09:48;;;;;;;8.98;4.32;;;;;;;;;;4971589;28;20054;-84
2022/04/19 01:15:05;;;;;;;9.73;4.50;;;;;;;;;;4988935;28;20488;-84
2022/04/19 01:17:34;;;;;;;6.85;4.70;;;;;;;;;;4973642;28;20078;-84
2022/04/19 01:20:03;;;;;;;7.55;4.47;;;;;;;;;;4969244;28;20135;-84
2022/04/19 01:22:37;;;;;;;8.15;4.45;;;;;;;;;;4980697;28;20145;-84
2022/04/19 01:25:04;;;;;;;10.98;5.10;;;;;;;;;;4970617;28;20069;-84
2022/04/19 01:27:30;;;;;;;8.88;5.22;;;;;;;;;;4972487;28;20047;-84
2022/04/19 01:30:00;;;;;;;7.45;4.88;;;;;;;;;;4972082;28;20133;-84
2022/04/19 01:32:28;;;;;;;9.07;4.70;;;;;;;;;;4970168;28;20503;-84
2022/04/19 01:35:11;;;;;;;8.02;5.05;;;;;;;;;;4971143;28;20196;-84
2022/04/19 01:37:41;;;;;;;8.45;4.50;;;;;;;;;;4966609;28;20114;-84
2022/04/19 01:40:17;;;;;;;8.18;5.13;;;;;;;;;;4967148;28;20063;-84
2022/04/19 01:42:48;;;;;;;7.15;4.82;;;;;;;;;;4964499;28;20059;-84
2022/04/19 01:45:16;;;;;;;7.72;4.82;;;;;;;;;;4980545;28;20113;-84
2022/04/19 01:47:45;;;;;;;9.15;5.03;;;;;;;;;;4968545;28;20075;-84
2022/04/19 01:50:13;;;;;;;8.52;4.82;;;;;;;;;;4964312;28;20566;-84
2022/04/19 01:52:40;;;;;;;8.38;4.40;;;;;;;;;;4971111;28;20542;-84
2022/04/19 01:55:08;;;;;;;7.90;4.45;;;;;;;;;;4971936;28;20139;-84
2022/04/19 01:57:34;;;;;;;7.55;4.40;;;;;;;;;;4982242;28;20113;-84
2022/04/19 02:00:05;;;;;;;8.00;4.78;;;;;;;;;;4972299;28;20183;-84
2022/04/19 02:02:31;;;;;;;9.50;4.70;;;;;;;;;;4969776;28;20134;-84
2022/04/19 02:04:58;;;;;;;7.40;4.65;;;;;;;;;;4988239;28;20093;-84
2022/04/19 02:07:24;;;;;;;6.88;4.40;;;;;;;;;;4970454;28;20102;-84
2022/04/19 02:09:50;;;;;;;8.75;5.05;;;;;;;;;;4967532;28;20070;-84
2022/04/19 02:12:17;;;;;;;8.50;4.63;;;;;;;;;;4970257;28;20141;-84
2022/04/19 02:14:43;;;;;;;8.45;4.72;;;;;;;;;;4989131;28;20137;-84
2022/04/19 02:17:10;;;;;;;12.18;5.22;;;;;;;;;;4971811;28;20058;-84
2022/04/19 02:19:36;;;;;;;8.07;4.78;;;;;;;;;;4968663;28;20162;-84
2022/04/19 02:22:05;;;;;;;8.43;4.88;;;;;;;;;;4970614;28;20138;-84
2022/04/19 02:24:31;;;;;;;7.80;4.70;;;;;;;;;;4969405;28;20101;-84
2022/04/19 02:26:58;;;;;;;9.10;5.00;;;;;;;;;;4969527;28;20061;-84
2022/04/19 02:29:25;;;;;;;10.13;4.97;;;;;;;;;;4971049;28;20105;-84
2022/04/19 02:31:52;;;;;;;8.75;5.00;;;;;;;;;;4967260;28;20055;-84
2022/04/19 02:34:18;;;;;;;7.82;4.63;;;;;;;;;;4970697;28;20609;-84
2022/04/19 02:36:45;;;;;;;8.23;5.32;;;;;;;;;;4970271;28;20058;-84
2022/04/19 02:39:11;;;;;;;9.68;5.65;;;;;;;;;;4968330;28;20134;-84
2022/04/19 02:41:38;;;;;;;9.48;6.00;;;;;;;;;;4976607;28;20071;-84
2022/04/19 02:44:06;;;;;;;9.82;5.88;;;;;;;;;;4959408;28;20141;-84
2022/04/19 02:46:33;;;;;;;10.63;6.40;;;;;;;;;;4966328;28;20166;-84
2022/04/19 02:49:04;;;;;;;9.82;6.47;;;;;;;;;;4967821;28;20137;-84
2022/04/19 02:51:32;;;;;;;10.93;6.55;;;;;;;;;;4963813;28;20138;-84
2022/04/19 02:53:58;;;;;;;10.95;7.15;;;;;;;;;;4985843;28;20370;-84
2022/04/19 02:56:25;;;;;;;13.85;7.75;;;;;;;;;;4969566;28;20134;-84
2022/04/19 02:58:51;;;;;;;12.52;7.32;;;;;;;;;;4966805;28;20495;-84
2022/04/19 03:01:18;;;;;;;13.23;7.43;;;;;;;;;;4983772;28;20138;-84
2022/04/19 03:03:45;;;;;;;11.18;7.25;;;;;;;;;;4968118;28;20133;-84
2022/04/19 03:06:11;;;;;;;13.55;7.25;;;;;;;;;;4971232;28;20720;-84
2022/04/19 03:08:37;;;;;;;13.70;7.13;;;;;;;;;;4970368;28;20058;-84
2022/04/19 03:11:04;;;;;;;14.95;7.90;;;;;;;;;;4963580;28;20107;-84
2022/04/19 03:13:32;;;;;;;13.20;7.93;;;;;;;;;;4986202;28;20055;-84
2022/04/19 03:15:58;;;;;;;12.73;8.30;;;;;;;;;;4971290;28;20061;-84
2022/04/19 03:18:24;;;;;;;14.35;8.60;;;;;;;;;;4970323;28;20061;-84
2022/04/19 03:20:51;;;;;;;16.35;8.70;;;;;;;;;;4981172;28;20149;-84
2022/04/19 03:28:47;;;;;;;15.43;9.30;;;;;;;;;;4980317;28;20737;-84
2022/04/19 03:31:14;;;;;;;13.23;9.00;;;;;;;;;;4977564;28;20156;-84
2022/04/19 03:33:40;;;;;;;14.70;8.25;;;;;;;;;;4969260;28;20063;-84
2022/04/19 03:36:10;;;;;;;14.35;8.38;;;;;;;;;;4983663;28;20090;-84
2022/04/19 03:38:36;;;;;;;13.75;8.27;;;;;;;;;;4964919;28;20070;-84
2022/04/19 03:41:03;;;;;;;12.95;8.30;;;;;;;;;;4972431;28;20102;-84
2022/04/19 03:43:32;;;;;;;16.63;8.80;;;;;;;;;;4968460;28;20572;-84
2022/04/19 03:45:59;;;;;;;15.52;8.35;;;;;;;;;;4969987;28;20252;-84
2022/04/19 03:48:26;;;;;;;14.32;8.10;;;;;;;;;;4976167;28;20055;-84
2022/04/19 03:50:52;;;;;;;14.13;8.43;;;;;;;;;;4965699;28;20185;-84
2022/04/19 03:53:18;;;;;;;14.32;7.90;;;;;;;;;;4966372;28;20144;-84
2022/04/19 03:55:45;;;;;;;14.20;8.93;;;;;;;;;;4981379;28;20514;-84
2022/04/19 03:58:11;;;;;;;15.48;9.50;;;;;;;;;;4984965;28;20537;-84
2022/04/19 04:00:38;;;;;;;14.30;8.73;;;;;;;;;;4970034;28;20126;-84
2022/04/19 04:03:06;;;;;;;13.63;8.32;;;;;;;;;;4985796;28;20082;-84
2022/04/19 04:05:32;;;;;;;15.15;8.65;;;;;;;;;;4966270;28;20580;-84
2022/04/19 04:07:59;;;;;;;16.55;8.63;;;;;;;;;;4988391;28;20142;-84
2022/04/19 04:10:25;;;;;;;13.43;8.13;;;;;;;;;;4980071;28;20082;-84
2022/04/19 04:12:51;;;;;;;17.27;9.50;;;;;;;;;;4974278;28;20058;-84
2022/04/19 04:15:18;;;;;;;14.85;8.52;;;;;;;;;;4979581;28;20066;-84
2022/04/19 04:17:44;;;;;;;16.33;9.27;;;;;;;;;;4979702;28;20609;-84
2022/04/19 04:20:11;;;;;;;13.75;9.00;;;;;;;;;;4982457;28;20102;-84
2022/04/19 04:22:37;;;;;;;15.40;8.95;;;;;;;;;;4975988;28;20750;-84
2022/04/19 04:25:04;;;;;;;17.42;9.85;;;;;;;;;;4980323;28;20578;-84
2022/04/19 04:27:30;;;;;;;20.23;9.57;;;;;;;;;;4974437;28;20134;-84
2022/04/19 04:29:56;;;;;;;14.63;8.70;;;;;;;;;;4970555;28;20075;-84
2022/04/19 04:32:23;;;;;;;15.10;8.88;;;;;;;;;;4974038;28;20062;-84
2022/04/19 04:34:49;;;;;;;17.73;9.82;;;;;;;;;;4973626;28;20047;-84
2022/04/19 04:37:15;;;;;;;13.32;8.80;;;;;;;;;;4969425;28;20061;-84
2022/04/19 04:39:42;;;;;;;14.75;9.45;;;;;;;;;;4972308;28;20065;-84
2022/04/19 04:42:09;;;;;;;14.55;8.75;;;;;;;;;;4973895;28;20055;-84
2022/04/19 04:44:35;;;;;;;14.40;9.60;;;;;;;;;;4989840;28;20086;-84
2022/04/19 04:49:46;;;;;;;18.60;9.70;;;;;;;;;;4990263;28;20150;-84
2022/04/19 04:52:13;;;;;;;16.70;9.20;;;;;;;;;;4965576;28;20154;-84
2022/04/19 04:54:40;;;;;;;16.70;9.68;;;;;;;;;;4964339;28;20054;-84
2022/04/19 04:57:07;;;;;;;15.85;8.98;;;;;;;;;;4972325;28;20530;-84
2022/04/19 04:59:34;;;;;;;16.60;9.50;;;;;;;;;;4971117;28;20929;-84
2022/04/19 05:02:01;;;;;;;15.50;9.05;;;;;;;;;;4969497;28;20059;-84
2022/04/19 05:04:27;;;;;;;16.55;9.65;;;;;;;;;;4980606;28;20446;-84
2022/04/19 05:06:54;;;;;;;16.40;9.68;;;;;;;;;;4972434;28;20562;-84
2022/04/19 05:09:20;;;;;;;15.55;9.73;;;;;;;;;;4973648;28;20059;-84
2022/04/19 05:11:47;;;;;;;16.30;8.85;;;;;;;;;;4973561;28;20138;-83
2022/04/19 05:14:13;;;;;;;17.65;9.80;;;;;;;;;;4971891;28;20594;-83
2022/04/19 05:16:41;;;;;;;18.30;9.90;;;;;;;;;;4971142;28;20105;-83
2022/04/19 05:19:08;;;;;;;17.70;9.05;;;;;;;;;;4986335;28;20150;-83
2022/04/19 05:21:37;;;;;;;19.17;9.45;;;;;;;;;;4968694;28;20067;-82
2022/04/19 05:24:04;;;;;;;15.27;8.88;;;;;;;;;;4987706;28;20089;-83
2022/04/19 05:26:31;;;;;;;18.35;10.13;;;;;;;;;;4986522;28;21094;-83
2022/04/19 05:28:57;;;;;;;17.08;10.45;;;;;;;;;;4982955;28;20059;-83
2022/04/19 05:31:24;;;;;;;16.17;9.52;;;;;;;;;;4968196;28;20173;-83
2022/04/19 05:33:50;;;;;;;17.98;10.02;;;;;;;;;;4969317;28;20050;-83
2022/04/19 05:36:17;;;;;;;20.92;10.15;;;;;;;;;;4969692;28;20094;-84
2022/04/19 05:38:43;;;;;;;16.23;9.80;;;;;;;;;;4970574;28;20110;-83
2022/04/19 05:41:10;;;;;;;16.38;9.75;;;;;;;;;;4967150;28;20062;-83
2022/04/19 05:43:37;;;;;;;16.40;9.38;;;;;;;;;;4970612;28;20489;-83
2022/04/19 05:46:03;;;;;;;16.40;9.90;;;;;;;;;;4970130;28;20148;-83
2022/04/19 05:48:29;;;;;;;18.88;10.68;;;;;;;;;;4973221;28;20069;-84
2022/04/19 05:50:56;;;;;;;17.50;9.85;;;;;;;;;;4990230;28;20221;-84
2022/04/19 05:53:22;;;;;;;16.75;10.05;;;;;;;;;;4969105;28;20118;-83
2022/04/19 05:55:49;;;;;;;16.58;10.05;;;;;;;;;;4985987;28;20141;-83
2022/04/19 05:58:15;;;;;;;17.85;11.00;;;;;;;;;;4989332;28;20150;-83
2022/04/19 06:00:42;;;;;;;15.30;10.38;;;;;;;;;;4972446;28;20549;-83
2022/04/19 06:05:53;;;;;;;19.48;10.32;;;;;;;;;;4988395;28;20141;-83
2022/04/19 06:08:20;;;;;;;16.98;10.48;;;;;;;;;;4958740;28;20078;-84
2022/04/19 06:10:48;;;;;;;17.20;10.93;;;;;;;;;;4988743;28;20062;-84
2022/04/19 06:13:14;;;;;;;18.55;10.07;;;;;;;;;;4979778;28;20613;-84
2022/04/19 06:15:41;;;;;;;17.60;10.90;;;;;;;;;;4970560;28;20146;-84
2022/04/19 06:18:07;;;;;;;23.55;11.18;;;;;;;;;;4969750;28;20137;-85
2022/04/19 06:20:34;;;;;;;22.48;11.30;;;;;;;;;;4973218;28;20090;-85
2022/04/19 06:23:00;;;;;;;25.55;11.07;;;;;;;;;;4968487;28;20101;-85
2022/04/19 06:25:27;;;;;;;19.55;11.15;;;;;;;;;;4967218;28;20087;-85
2022/04/19 06:27:57;;;;;;;20.60;10.60;;;;;;;;;;4967409;28;20553;-84
2022/04/19 06:30:24;;;;;;;17.93;10.90;;;;;;;;;;4978843;28;20157;-84
2022/04/19 06:32:51;;;;;;;20.33;10.77;;;;;;;;;;4963618;28;20298;-85
2022/04/19 06:35:17;;;;;;;23.63;11.23;;;;;;;;;;4971421;28;20083;-85
2022/04/19 06:37:44;;;;;;;24.70;11.20;;;;;;;;;;4969243;28;20605;-84
2022/04/19 06:40:10;;;;;;;23.77;10.93;;;;;;;;;;4970511;28;20055;-85
2022/04/19 06:42:37;;;;;;;19.40;11.60;;;;;;;;;;4971875;28;20097;-85
2022/04/19 06:45:04;;;;;;;18.08;10.27;;;;;;;;;;4972381;28;20066;-84
2022/04/19 06:47:30;;;;;;;19.30;10.68;;;;;;;;;;4976409;28;20079;-81
2022/04/19 06:49:59;;;;;;;22.20;10.65;;;;;;;;;;4964584;28;20150;-81
2022/04/19 06:52:26;;;;;;;21.27;9.98;;;;;;;;;;4967401;28;20481;-81
2022/04/19 06:54:52;;;;;;;20.13;10.15;;;;;;;;;;4968011;28;20054;-84
2022/04/19 06:57:19;;;;;;;19.60;11.27;;;;;;;;;;4985999;28;20055;-82
2022/04/19 06:59:46;;;;;;;18.23;9.85;;;;;;;;;;4961279;28;20085;-83
2022/04/19 07:02:12;;;;;;;20.35;9.10;;;;;;;;;;4982978;28;20073;-82
2022/04/19 07:04:41;;;;;;;19.15;9.50;;;;;;;;;;4968766;28;20055;-83
2022/04/19 07:07:07;;;;;;;17.25;9.75;;;;;;;;;;4971507;28;20130;-84
2022/04/19 07:09:34;;;;;;;25.02;9.77;;;;;;;;;;4985560;28;20082;-82
2022/04/19 07:12:00;;;;;;;18.80;9.73;;;;;;;;;;4968312;28;20051;-82
2022/04/19 07:14:27;;;;;;;24.13;9.18;;;;;;;;;;4980533;28;20720;-82
2022/04/19 07:16:54;;;;;;;19.45;9.07;;;;;;;;;;4982795;28;20164;-81
2022/04/19 07:19:20;;;;;;;35.22;10.18;;;;;;;;;;4985061;28;20078;-82
2022/04/19 07:27:23;;;;;;;19.98;9.13;;;;;;;;;;4979054;28;20055;-79
2022/04/19 07:29:50;;;;;;;14.60;8.80;;;;;;;;;;4986048;28;20106;-77
2022/04/19 07:32:16;;;;;;;173.60;18.15;;;;;;;;;;4983009;28;20051;-78
2022/04/19 07:34:43;;;;;;;110.10;13.90;;;;;;;;;;4968776;28;20146;-78
2022/04/19 07:37:09;;;;;;;25.40;9.00;;;;;;;;;;4981073;28;20095;-77
2022/04/19 07:39:36;;;;;;;68.22;12.02;;;;;;;;;;4981465;28;20220;-77
2022/04/19 07:42:02;;;;;;;56.30;10.50;;;;;;;;;;4989115;28;20925;-79
2022/04/19 07:44:29;;;;;;;14.73;7.82;;;;;;;;;;4991833;28;20146;-79
2022/04/19 07:46:56;;;;;;;19.33;7.90;;;;;;;;;;4977117;28;20045;-78
2022/04/19 07:49:22;;;;;;;18.35;8.13;;;;;;;;;;4989867;28;20055;-79
2022/04/19 07:51:49;;;;;;;17.98;7.90;;;;;;;;;;4976563;28;21073;-79
2022/04/19 07:54:16;;;;;;;16.85;7.97;;;;;;;;;;4976654;28;20070;-78
2022/04/19 07:56:42;;;;;;;15.52;7.97;;;;;;;;;;4977698;28;20169;-78
2022/04/19 07:59:08;;;;;;;16.48;8.18;;;;;;;;;;4975648;28;21023;-78
2022/04/19 08:01:35;;;;;;;17.02;7.63;;;;;;;;;;4993820;28;20180;-78
2022/04/19 08:04:01;;;;;;;16.95;8.00;;;;;;;;;;4969164;28;20228;-79
2022/04/19 08:06:28;;;;;;;12.57;5.43;;;;;;;;;;4969750;28;20552;-79
2022/04/19 08:08:56;;;;;;;12.23;5.25;;;;;;;;;;4981421;28;20059;-76
2022/04/19 08:11:22;;;;;;;8.02;4.32;;;;;;;;;;4992110;28;20097;-79
2022/04/19 08:13:49;;;;;;;8.68;3.22;;;;;;;;;;4967959;28;20065;-79
2022/04/19 08:16:15;;;;;;;12.40;3.80;;;;;;;;;;4982641;28;20599;-79
2022/04/19 08:18:42;;;;;;;11.35;3.80;;;;;;;;;;4978851;28;20062;-79
2022/04/19 08:21:09;;;;;;;8.00;3.97;;;;;;;;;;4965120;28;20117;-79
2022/04/19 08:23:35;;;;;;;13.02;4.10;;;;;;;;;;4969704;28;20054;-79
2022/04/19 08:26:01;;;;;;;8.27;3.70;;;;;;;;;;4970016;28;20404;-79
2022/04/19 08:28:28;;;;;;;9.35;3.72;;;;;;;;;;4958972;28;20047;-80
2022/04/19 08:30:54;;;;;;;7.97;3.85;;;;;;;;;;4970639;28;20150;-79
2022/04/19 08:33:21;;;;;;;8.25;4.00;;;;;;;;;;4987381;28;20055;-80
2022/04/19 08:35:47;;;;;;;9.45;4.43;;;;;;;;;;4987024;28;20752;-81
2022/04/19 08:38:13;;;;;;;8.63;4.10;;;;;;;;;;4969588;28;20154;-80
2022/04/19 08:40:40;;;;;;;8.63;4.32;;;;;;;;;;4970446;28;20059;-81
2022/04/19 08:43:06;;;;;;;9.25;3.88;;;;;;;;;;4970577;28;20055;-81
2022/04/19 08:45:33;;;;;;;9.70;4.18;;;;;;;;;;4988140;28;20145;-80
2022/04/19 08:48:02;;;;;;;7.85;3.88;;;;;;;;;;4993476;28;20941;-78
2022/04/19 08:50:29;;;;;;;9.27;4.15;;;;;;;;;;4983192;28;20055;-80
2022/04/19 08:58:26;;;;;;;7.63;3.80;;;;;;;;;;4989139;28;20171;-80
2022/04/19 09:00:52;;;;;;;9.05;4.20;;;;;;;;;;4973629;28;20078;-81
2022/04/19 09:03:20;;;;;;;11.60;4.03;;;;;;;;;;4990499;28;20534;-80
2022/04/19 09:05:50;;;;;;;10.93;3.83;;;;;;;;;;4989583;28;20089;-80
2022/04/19 09:08:17;;;;;;;;;;;;;;;;;;4987831;28;20057;-81
2022/04/19 09:10:44;;;;;;;10.23;4.28;;;;;;;;;;4985757;28;46823;-80
2022/04/19 09:13:11;;;;;;;11.50;3.92;;;;;;;;;;4973175;28;20133;-81
2022/04/19 09:15:38;;;;;;;10.07;3.92;;;;;;;;;;4990226;28;20103;-81
2022/04/19 09:18:13;;;;;;;10.13;4.00;;;;;;;;;;4971762;28;20094;-80
2022/04/19 09:20:40;;;;;;;8.73;4.45;;;;;;;;;;4969160;28;20522;-82
2022/04/19 09:23:07;;;;;;;8.93;4.43;;;;;;;;;;4990545;28;20050;-82
2022/04/19 09:25:34;;;;;;;8.57;4.43;;;;;;;;;;4982639;28;20079;-82
2022/04/19 09:28:02;;;;;;;10.32;4.60;;;;;;;;;;4986600;28;20254;-83
2022/04/19 09:30:30;;;;;;;10.27;4.85;;;;;;;;;;4980161;28;20113;-83
2022/04/19 09:33:11;;;;;;;8.02;4.55;;;;;;;;;;4976919;28;20055;-83
2022/04/19 09:35:44;;;;;;;8.80;4.82;;;;;;;;;;4978753;28;20592;-84
2022/04/19 09:38:12;;;;;;;10.98;4.97;;;;;;;;;;4989493;28;20050;-82
2022/04/19 09:40:39;;;;;;;9.18;4.68;;;;;;;;;;4981491;28;20126;-82
2022/04/19 09:43:13;;;;;;;13.73;5.00;;;;;;;;;;4970946;28;20105;-81
2022/04/19 09:45:58;;;;;;;21.35;5.70;;;;;;;;;;4974188;28;20561;-83
2022/04/19 09:48:26;;;;;;;10.90;4.60;;;;;;;;;;4987002;28;20577;-84
2022/04/19 09:51:05;;;;;;;9.63;5.07;;;;;;;;;;4992754;28;20070;-82
2022/04/19 09:53:37;;;;;;;15.07;5.82;;;;;;;;;;4993659;28;20098;-83
2022/04/19 09:56:07;;;;;;;9.38;4.95;;;;;;;;;;4973465;28;20058;-82
2022/04/19 09:58:33;;;;;;;18.20;4.87;;;;;;;;;;4974825;28;20090;-83
2022/04/19 10:01:00;;;;;;;10.60;4.78;;;;;;;;;;4981066;28;20970;-83
2022/04/19 10:08:57;;;;;;;12.13;4.90;;;;;;;;;;4980497;28;20554;-82
2022/04/19 10:11:25;;;;;;;11.20;4.65;;;;;;;;;;4968186;28;20719;-83
2022/04/19 10:13:53;;;;;;;9.55;4.93;;;;;;;;;;4990524;28;20082;-87
2022/04/19 10:16:19;;;;;;;9.30;4.32;;;;;;;;;;4964897;28;20086;-82
2022/04/19 10:18:45;;;;;;;8.73;5.00;;;;;;;;;;4965623;28;20059;-83
2022/04/19 10:21:16;;;;;;;14.85;4.85;;;;;;;;;;4989674;28;20066;-82
2022/04/19 10:23:44;;;;;;;9.95;4.43;;;;;;;;;;4974582;28;20059;-82
2022/04/19 10:26:18;;;;;;;9.00;4.90;;;;;;;;;;4984791;28;20125;-83
2022/04/19 10:28:45;;;;;;;7.93;4.07;;;;;;;;;;4974389;28;20055;-83
2022/04/19 10:31:12;;;;;;;8.85;5.38;;;;;;;;;;4971369;28;20857;-83
2022/04/19 10:33:39;;;;;;;11.70;4.80;;;;;;;;;;4968682;28;20642;-82
2022/04/19 10:36:08;;;;;;;10.50;5.22;;;;;;;;;;4983220;28;20268;-82
2022/04/19 10:38:35;;;;;;;8.77;4.35;;;;;;;;;;4984042;28;20167;-82
2022/04/19 10:41:03;;;;;;;10.13;5.00;;;;;;;;;;4983249;28;20090;-82
2022/04/19 10:43:30;;;;;;;9.50;4.70;;;;;;;;;;4971917;28;20058;-83
2022/04/19 10:46:15;;;;;;;7.68;4.05;;;;;;;;;;4968634;28;20062;-84
2022/04/19 10:49:00;;;;;;;10.02;5.07;;;;;;;;;;4991749;28;20192;-82
2022/04/19 10:51:27;;;;;;;11.48;4.93;;;;;;;;;;4986965;28;20055;-83
2022/04/19 10:53:53;;;;;;;10.10;4.63;;;;;;;;;;4974195;28;20047;-83
2022/04/19 10:56:20;;;;;;;10.07;4.97;;;;;;;;;;4974892;28;20138;-83
2022/04/19 10:58:46;;;;;;;9.05;4.97;;;;;;;;;;4990248;28;20085;-83
2022/04/19 11:01:32;;;;;;;10.45;5.18;;;;;;;;;;4986996;28;20498;-80
2022/04/19 11:03:59;;;;;;;13.48;5.63;;;;;;;;;;4990712;28;20082;-82
2022/04/19 11:06:31;;;;;;;10.77;5.30;;;;;;;;;;4971659;28;20110;-82
2022/04/19 11:09:16;;;;;;;12.13;5.68;;;;;;;;;;4982835;28;20399;-82
2022/04/19 11:11:44;;;;;;;13.48;5.32;;;;;;;;;;4978412;28;20054;-83
2022/04/19 11:14:35;;;;;;;11.23;5.65;;;;;;;;;;4987431;28;20061;-85
2022/04/19 11:17:18;;;;;;;9.50;5.40;;;;;;;;;;4971990;28;20085;-84
2022/04/19 11:19:55;;;;;;;13.70;6.25;;;;;;;;;;4977773;28;20137;-83
2022/04/19 11:22:29;;;;;;;10.60;4.93;;;;;;;;;;4986937;28;20085;-82
2022/04/19 11:24:59;;;;;;;12.75;5.60;;;;;;;;;;4991250;28;20059;-82
2022/04/19 11:27:51;;;;;;;11.60;5.72;;;;;;;;;;4981763;28;20055;-83
2022/04/19 11:30:18;;;;;;;11.35;5.30;;;;;;;;;;4958891;28;20893;-83
2022/04/19 11:32:48;;;;;;;9.60;5.15;;;;;;;;;;4974543;28;20081;-82
2022/04/19 11:35:16;;;;;;;9.75;5.00;;;;;;;;;;4971982;28;20050;-80
2022/04/19 11:37:42;;;;;;;11.65;4.95;;;;;;;;;;4988983;28;20082;-80
2022/04/19 11:48:37;;;;;;;10.50;5.20;;;;;;;;;;4986353;28;20058;-80
2022/04/19 11:51:10;;;;;;;9.65;5.30;;;;;;;;;;4983752;28;20145;-81
2022/04/19 11:53:37;;;;;;;9.35;4.70;;;;;;;;;;4988691;28;20101;-80
2022/04/19 11:56:03;;;;;;;10.68;5.43;;;;;;;;;;4973163;28;20057;-82
2022/04/19 11:58:31;;;;;;;11.80;5.93;;;;;;;;;;4997978;28;20116;-81
2022/04/19 12:00:58;;;;;;;10.80;5.25;;;;;;;;;;4983438;28;20093;-81
2022/04/19 12:03:26;;;;;;;12.30;5.72;;;;;;;;;;4988997;28;20050;-81
2022/04/19 12:06:12;;;;;;;10.48;5.68;;;;;;;;;;4981676;28;20086;-83
2022/04/19 12:08:42;;;;;;;13.13;5.93;;;;;;;;;;4972187;28;20146;-83
2022/04/19 12:11:09;;;;;;;11.50;5.80;;;;;;;;;;4978160;28;20514;-81
2022/04/19 12:13:36;;;;;;;12.82;6.10;;;;;;;;;;4974644;28;20055;-81
2022/04/19 12:16:04;;;;;;;13.80;6.20;;;;;;;;;;4985634;28;20063;-82
2022/04/19 12:18:31;;;;;;;15.77;5.45;;;;;;;;;;4996509;28;20586;-81
2022/04/19 12:20:58;;;;;;;11.50;5.82;;;;;;;;;;4980480;28;20138;-82
2022/04/19 12:23:24;;;;;;;10.32;5.45;;;;;;;;;;4971512;28;20077;-81
2022/04/19 12:25:59;;;;;;;11.15;5.78;;;;;;;;;;4987006;28;20869;-81
2022/04/19 12:28:58;;;;;;;14.20;5.88;;;;;;;;;;4989989;28;20090;-81
2022/04/19 12:31:39;;;;;;;16.13;4.90;;;;;;;;;;4954674;28;20103;-81
2022/04/19 12:34:06;;;;;;;17.85;5.18;;;;;;;;;;4974262;28;20065;-83
2022/04/19 12:36:42;;;;;;;8.60;4.35;;;;;;;;;;4988686;28;20090;-81
2022/04/19 12:39:09;;;;;;;9.63;4.85;;;;;;;;;;4970054;28;20129;-79
2022/04/19 12:41:36;;;;;;;8.48;4.75;;;;;;;;;;4985180;28;20157;-79
2022/04/19 12:44:03;;;;;;;10.68;5.32;;;;;;;;;;4995706;28;20078;-80
2022/04/19 12:46:30;;;;;;;9.07;4.70;;;;;;;;;;4990409;28;20566;-80
2022/04/19 12:48:57;;;;;;;9.90;4.93;;;;;;;;;;4983853;28;20580;-80
2022/04/19 12:51:24;;;;;;;12.55;5.22;;;;;;;;;;4990407;28;20110;-80
2022/04/19 12:54:01;;;;;;;9.85;5.03;;;;;;;;;;4988263;28;20142;-81
2022/04/19 12:56:27;;;;;;;12.15;5.25;;;;;;;;;;4981776;28;20153;-81
2022/04/19 12:58:54;;;;;;;9.63;4.35;;;;;;;;;;4967715;28;20094;-80
2022/04/19 13:01:20;;;;;;;8.57;5.03;;;;;;;;;;4976271;28;20494;-80
2022/04/19 13:03:47;;;;;;;12.57;5.15;;;;;;;;;;4979195;28;20062;-83
2022/04/19 13:14:29;;;;;;;9.40;4.60;;;;;;;;;;4985883;28;20545;-81
2022/04/19 13:16:56;;;;;;;9.55;4.82;;;;;;;;;;5004486;28;20054;-80
2022/04/19 13:19:23;;;;;;;10.27;4.55;;;;;;;;;;4986026;28;20543;-82
2022/04/19 13:21:49;;;;;;;17.20;4.50;;;;;;;;;;4974809;28;20090;-81
2022/04/19 13:24:17;;;;;;;17.67;5.10;;;;;;;;;;4970668;28;20121;-82
2022/04/19 13:26:44;;;;;;;22.85;4.43;;;;;;;;;;4972778;28;20063;-81
2022/04/19 13:29:11;;;;;;;13.75;4.07;;;;;;;;;;4994861;28;20513;-80
2022/04/19 13:31:38;;;;;;;6.78;3.88;;;;;;;;;;4981842;28;20585;-81
2022/04/19 13:34:05;;;;;;;9.23;4.18;;;;;;;;;;4988509;28;20063;-82
2022/04/19 13:36:31;;;;;;;9.13;3.70;;;;;;;;;;4995931;28;20054;-80
2022/04/19 13:38:57;;;;;;;6.38;3.47;;;;;;;;;;5004560;28;20053;-80
2022/04/19 13:41:24;;;;;;;10.98;3.42;;;;;;;;;;4994143;28;20122;-80
2022/04/19 13:43:52;;;;;;;6.47;3.50;;;;;;;;;;4980695;28;20115;-80
2022/04/19 13:46:18;;;;;;;6.15;2.78;;;;;;;;;;4990829;28;20873;-80
2022/04/19 13:48:45;;;;;;;7.13;3.25;;;;;;;;;;4985405;28;20066;-81
2022/04/19 13:51:11;;;;;;;8.25;2.83;;;;;;;;;;4983486;28;20086;-81
2022/04/19 13:53:38;;;;;;;6.93;2.80;;;;;;;;;;4980376;28;20093;-80
2022/04/19 13:56:05;;;;;;;5.30;2.90;;;;;;;;;;4972255;28;20062;-80
2022/04/19 13:58:31;;;;;;;10.05;3.20;;;;;;;;;;4978536;28;20050;-79
2022/04/19 14:00:58;;;;;;;12.35;2.83;;;;;;;;;;4995209;28;20090;-82
2022/04/19 14:03:25;;;;;;;5.28;2.53;;;;;;;;;;4992599;28;20050;-80
2022/04/19 14:05:53;;;;;;;6.65;2.42;;;;;;;;;;4996141;28;20576;-80
2022/04/19 14:08:20;;;;;;;6.07;2.50;;;;;;;;;;4983501;28;20625;-82
2022/04/19 14:10:47;;;;;;;7.32;2.65;;;;;;;;;;4983318;28;20101;-81
2022/04/19 14:13:13;;;;;;;6.65;2.20;;;;;;;;;;5006924;28;20114;-80
2022/04/19 14:15:39;;;;;;;6.20;2.40;;;;;;;;;;4991118;28;20142;-80
2022/04/19 14:18:06;;;;;;;27.10;3.63;;;;;;;;;;4982636;28;20051;-80
2022/04/19 14:20:33;;;;;;;11.45;2.15;;;;;;;;;;4978272;28;20109;-80
2022/04/19 14:22:59;;;;;;;5.45;1.70;;;;;;;;;;4973017;28;20089;-80
2022/04/19 14:25:26;;;;;;;21.52;2.40;;;;;;;;;;4985132;28;20118;-81
2022/04/19 14:27:52;;;;;;;5.97;2.00;;;;;;;;;;4972882;28;20082;-81
2022/04/19 14:33:15;;;;;;;5.30;2.30;;;;;;;;;;4989259;28;20066;-80
2022/04/19 14:35:42;;;;;;;8.35;2.30;;;;;;;;;;4991046;28;20110;-80
2022/04/19 14:38:09;;;;;;;5.20;2.00;;;;;;;;;;4981286;28;20047;-80
2022/04/19 14:40:35;;;;;;;4.50;2.08;;;;;;;;;;4998231;28;20145;-80
2022/04/19 14:43:01;;;;;;;10.85;2.17;;;;;;;;;;4993646;28;20374;-80
2022/04/19 14:45:28;;;;;;;5.40;2.22;;;;;;;;;;5005801;28;20054;-82
2022/04/19 14:47:54;;;;;;;5.57;1.98;;;;;;;;;;5002127;28;20061;-81
2022/04/19 14:50:21;;;;;;;5.65;2.03;;;;;;;;;;4984664;28;20063;-80
2022/04/19 14:52:48;;;;;;;4.93;2.22;;;;;;;;;;4974638;28;20479;-81
2022/04/19 14:55:19;;;;;;;4.38;1.75;;;;;;;;;;5000398;28;20145;-80
2022/04/19 14:57:46;;;;;;;9.60;2.47;;;;;;;;;;4988624;28;20058;-80
2022/04/19 15:00:12;;;;;;;7.53;2.20;;;;;;;;;;4971830;28;20787;-79
2022/04/19 15:02:39;;;;;;;7.93;2.40;;;;;;;;;;4970829;28;20147;-82
2022/04/19 15:05:06;;;;;;;7.45;2.70;;;;;;;;;;4952672;28;20055;-80
2022/04/19 15:07:33;;;;;;;6.25;2.67;;;;;;;;;;4970356;28;20585;-81
2022/04/19 15:09:59;;;;;;;5.75;2.58;;;;;;;;;;4974583;28;20086;-82
2022/04/19 15:12:46;;;;;;;5.95;2.80;;;;;;;;;;4970514;28;20142;-80
2022/04/19 15:15:12;;;;;;;8.05;2.65;;;;;;;;;;4964700;28;20055;-80
2022/04/19 15:17:38;;;;;;;6.80;2.40;;;;;;;;;;4989349;28;20126;-82
2022/04/19 15:20:05;;;;;;;10.32;2.50;;;;;;;;;;4971739;28;20145;-80
2022/04/19 15:22:31;;;;;;;5.15;2.05;;;;;;;;;;4989540;28;20059;-79
2022/04/19 15:24:58;;;;;;;3.75;2.00;;;;;;;;;;4988680;28;20078;-83
2022/04/19 15:27:26;;;;;;;4.90;2.20;;;;;;;;;;4972785;28;20113;-82